Time;durP1;ratioP1;P1;durP2;ratioP2;P2;SDS_P1;SDS_P2;PMS_P1;PMS_P2;Temp;Humidity;BMP_temperature;BMP_pressure;BME280_temperature;BME280_humidity;BME280_pressure;Samples;Min_cycle;Max_cycle;Signal;HPM_P1;HPM_P2
2023/06/23 00:00:11;;;;;;;9.05;7.07;;;;;;;21.64;73.37;99537.44;4899856;29;20051;-88
2023/06/23 00:02:38;;;;;;;8.63;7.43;;;;;;;21.56;73.53;99530.91;4917289;29;20043;-88
2023/06/23 00:05:05;;;;;;;10.75;7.53;;;;;;;21.62;73.25;99545.22;4917972;29;20087;-89
2023/06/23 00:07:31;;;;;;;12.52;7.18;;;;;;;21.59;73.09;99535.72;4899747;29;20574;-89
2023/06/23 00:09:56;;;;;;;10.70;6.43;;;;;;;21.59;72.95;99531.03;4908100;29;20063;-89
2023/06/23 00:12:24;;;;;;;9.73;7.20;;;;;;;21.55;72.64;99532.84;4892814;29;20118;-88
2023/06/23 00:14:49;;;;;;;11.90;6.85;;;;;;;21.59;72.66;99546.69;4907959;29;20066;-88
2023/06/23 00:17:15;;;;;;;8.75;6.78;;;;;;;21.46;72.96;99523.94;4900435;29;20039;-89
2023/06/23 00:19:41;;;;;;;12.07;7.10;;;;;;;21.34;73.16;99524.66;4906873;29;20403;-89
2023/06/23 00:22:06;;;;;;;11.95;6.70;;;;;;;21.45;73.30;99551.66;4919773;29;20110;-89
2023/06/23 00:24:32;;;;;;;9.00;6.90;;;;;;;21.45;73.14;99563.41;4907985;29;20470;-89
2023/06/23 00:26:58;;;;;;;8.32;7.07;;;;;;;21.35;72.83;99541.88;4908071;29;20062;-89
2023/06/23 00:29:23;;;;;;;11.55;8.30;;;;;;;21.40;73.09;99549.91;4907233;29;20135;-89
2023/06/23 00:31:49;;;;;;;8.70;6.95;;;;;;;21.34;73.39;99543.81;4907354;29;20051;-88
2023/06/23 00:34:15;;;;;;;8.50;7.15;;;;;;;21.34;73.39;99545.78;4892238;29;20083;-88
2023/06/23 00:36:41;;;;;;;10.00;6.53;;;;;;;21.30;73.21;99534.69;4908083;29;20035;-89
2023/06/23 00:39:08;;;;;;;10.10;7.32;;;;;;;21.33;72.89;99547.72;4907973;29;20047;-88
2023/06/23 00:41:34;;;;;;;10.70;6.80;;;;;;;21.28;72.98;99536.94;4907740;29;20142;-89
2023/06/23 00:43:59;;;;;;;10.57;7.00;;;;;;;21.25;73.31;99542.28;4893284;29;20051;-88
2023/06/23 00:46:25;;;;;;;9.85;6.88;;;;;;;21.23;73.28;99528.97;4924308;29;20070;-88
2023/06/23 00:48:51;;;;;;;8.60;7.00;;;;;;;21.22;73.31;99546.50;4907196;29;20032;-89
2023/06/23 00:51:18;;;;;;;12.57;7.25;;;;;;;21.17;73.66;99536.56;4906953;29;20509;-88
2023/06/23 00:53:47;;;;;;;9.50;6.60;;;;;;;21.19;73.04;99541.72;4939269;29;20043;-88
2023/06/23 00:56:18;;;;;;;8.77;6.78;;;;;;;21.26;73.59;99536.50;4940261;29;20517;-89
2023/06/23 00:58:44;;;;;;;11.57;7.55;;;;;;;21.15;73.99;99533.38;4908586;29;20103;-88
2023/06/23 01:01:10;;;;;;;8.65;6.95;;;;;;;21.15;74.18;99541.59;4907711;29;20035;-89
2023/06/23 01:03:37;;;;;;;11.75;6.93;;;;;;;21.07;74.18;99541.66;4908384;29;20066;-88
2023/06/23 01:06:20;;;;;;;8.43;6.97;;;;;;;21.06;73.65;99540.03;4922737;29;20040;-89
2023/06/23 01:08:55;;;;;;;10.40;7.13;;;;;;;20.95;74.44;99543.19;4908416;29;20028;-88
2023/06/23 01:11:32;;;;;;;8.77;6.88;;;;;;;20.84;74.89;99544.72;4891977;29;20043;-88
2023/06/23 01:14:10;;;;;;;10.38;6.80;;;;;;;20.84;74.69;99546.66;4907335;29;20043;-88
2023/06/23 01:16:44;;;;;;;9.57;6.90;;;;;;;20.86;74.59;99558.09;4906643;29;20206;-89
2023/06/23 01:19:13;;;;;;;11.18;7.13;;;;;;;20.75;74.88;99550.25;4908503;29;20498;-89
2023/06/23 01:22:06;;;;;;;10.90;6.63;;;;;;;20.69;74.75;99548.03;4923562;29;20478;-88
2023/06/23 01:25:21;;;;;;;11.70;7.05;;;;;;;20.67;75.23;99550.28;4907883;29;20093;-89
2023/06/23 01:27:49;;;;;;;10.65;6.97;;;;;;;20.65;75.32;99555.28;4814162;29;20128;-88
2023/06/23 01:30:15;;;;;;;10.13;7.15;;;;;;;20.57;74.84;99557.75;4829786;29;20058;-88
2023/06/23 01:32:47;;;;;;;8.02;6.90;;;;;;;20.58;74.96;99553.88;4814393;29;20205;-88
2023/06/23 01:35:14;;;;;;;;;;;;;;;20.50;75.12;99562.13;4830194;29;20073;-88
2023/06/23 01:37:41;;;;;;;9.98;7.40;;;;;;;20.40;75.52;99555.09;4829375;29;19913;-89
2023/06/23 01:40:13;;;;;;;8.98;7.18;;;;;;;20.35;75.42;99558.00;4918807;29;20035;-89
2023/06/23 01:42:41;;;;;;;12.32;7.82;;;;;;;20.40;75.52;99557.84;4906723;29;20079;-88
2023/06/23 01:45:08;;;;;;;18.48;7.18;;;;;;;20.34;75.82;99556.41;4906908;29;20044;-88
2023/06/23 01:47:39;;;;;;;13.60;8.88;;;;;;;20.33;76.11;99549.34;4907337;29;20512;-89
2023/06/23 01:50:05;;;;;;;;;;;;;;;20.31;76.30;99563.31;4908378;29;20046;-88
2023/06/23 01:52:33;;;;;;;10.02;8.25;;;;;;;20.24;76.87;99560.31;4922433;29;20372;-88
2023/06/23 01:55:01;;;;;;;14.73;9.20;;;;;;;20.19;76.63;99555.00;4923348;29;20032;-88
2023/06/23 01:57:28;;;;;;;13.15;8.23;;;;;;;20.27;76.24;99558.84;4906673;29;20090;-88
2023/06/23 01:59:54;;;;;;;12.73;8.60;;;;;;;20.25;76.61;99559.16;4906814;29;20032;-87
2023/06/23 02:02:20;;;;;;;19.55;8.35;;;;;;;20.28;76.72;99566.72;4922325;29;20044;-88
2023/06/23 02:04:47;;;;;;;11.95;7.75;;;;;;;20.16;76.87;99563.88;4906903;29;20039;-89
2023/06/23 02:07:13;;;;;;;10.77;8.90;;;;;;;20.14;76.92;99566.94;4905526;29;20039;-88
2023/06/23 02:09:41;;;;;;;11.48;8.15;;;;;;;20.07;77.10;99558.47;4906590;29;20051;-88
2023/06/23 02:12:07;;;;;;;13.15;9.40;;;;;;;20.15;76.54;99562.28;4907104;29;20035;-88
2023/06/23 02:14:34;;;;;;;14.43;8.95;;;;;;;20.14;76.65;99556.00;4921809;29;20055;-88
2023/06/23 02:17:00;;;;;;;12.38;8.45;;;;;;;20.33;76.12;99569.28;4906614;29;20052;-89
2023/06/23 02:19:26;;;;;;;11.95;7.97;;;;;;;20.42;75.65;99563.78;4890257;29;20438;-89
2023/06/23 02:21:53;;;;;;;9.82;7.85;;;;;;;20.49;75.65;99568.72;4906678;29;20048;-89
2023/06/23 02:24:22;;;;;;;12.85;8.20;;;;;;;20.56;75.31;99564.31;4922798;29;20047;-88
2023/06/23 02:26:47;;;;;;;11.20;8.80;;;;;;;20.67;74.46;99573.00;4907005;29;20112;-88
2023/06/23 02:29:13;;;;;;;10.30;7.63;;;;;;;20.56;75.02;99567.06;4907232;29;20467;-88
2023/06/23 02:31:39;;;;;;;13.23;7.68;;;;;;;20.41;75.42;99575.84;4905026;29;20039;-88
2023/06/23 02:34:05;;;;;;;15.23;8.05;;;;;;;20.42;75.22;99573.91;4921723;29;20047;-89
2023/06/23 02:36:43;;;;;;;9.93;7.68;;;;;;;20.35;75.37;99571.69;4907144;29;20517;-88
2023/06/23 02:39:12;;;;;;;9.63;7.57;;;;;;;20.38;75.38;99577.31;4922501;29;20035;-88
2023/06/23 02:41:37;;;;;;;11.05;7.93;;;;;;;20.32;75.82;99583.28;4890548;29;20056;-88
2023/06/23 02:44:10;;;;;;;10.10;7.18;;;;;;;20.25;76.23;99572.84;4906796;29;20110;-88
2023/06/23 02:46:36;;;;;;;11.00;7.90;;;;;;;20.24;75.57;99578.66;4906439;29;20565;-87
2023/06/23 02:49:10;;;;;;;12.88;7.40;;;;;;;20.23;75.62;99574.31;4890978;29;20122;-88
2023/06/23 02:51:36;;;;;;;18.95;7.40;;;;;;;20.20;75.92;99573.03;4891581;29;20065;-88
2023/06/23 02:54:09;;;;;;;8.38;7.10;;;;;;;20.12;76.32;99579.34;4922734;29;20039;-88
2023/06/23 02:56:41;;;;;;;16.33;6.88;;;;;;;20.05;76.04;99563.44;4916167;29;20062;-89
2023/06/23 02:59:06;;;;;;;9.32;7.05;;;;;;;20.09;75.75;99571.81;4920077;29;20122;-89
2023/06/23 03:01:34;;;;;;;10.65;7.55;;;;;;;19.97;75.88;99572.47;4898739;29;20035;-87
2023/06/23 03:04:00;;;;;;;9.90;7.03;;;;;;;19.87;76.38;99564.63;4921068;29;20040;-88
2023/06/23 03:06:26;;;;;;;9.95;7.47;;;;;;;20.04;76.05;99577.44;4890407;29;20406;-89
2023/06/23 03:08:53;;;;;;;11.48;7.38;;;;;;;19.97;76.03;99589.69;4920840;29;20410;-89
2023/06/23 03:11:20;;;;;;;10.88;7.38;;;;;;;20.08;75.49;99578.38;4938351;29;20047;-88
2023/06/23 03:13:46;;;;;;;9.85;7.13;;;;;;;20.11;75.22;99577.75;4890204;29;20478;-89
2023/06/23 03:16:13;;;;;;;11.13;7.82;;;;;;;20.08;75.98;99579.19;4905940;29;20043;-88
2023/06/23 03:18:39;;;;;;;14.45;7.35;;;;;;;20.08;75.83;99578.38;4890790;29;20047;-88
2023/06/23 03:21:05;;;;;;;10.75;7.60;;;;;;;20.01;75.88;99575.38;4890090;29;20044;-88
2023/06/23 03:23:31;;;;;;;12.63;7.50;;;;;;;20.05;75.80;99579.06;4890323;29;20044;-88
2023/06/23 03:25:59;;;;;;;11.27;7.32;;;;;;;20.09;75.84;99586.28;4905967;29;20039;-89
2023/06/23 03:28:29;;;;;;;11.23;7.60;;;;;;;20.00;76.06;99582.75;4921667;29;20067;-89
2023/06/23 03:31:00;;;;;;;12.65;8.25;;;;;;;20.03;76.16;99578.59;4906481;29;20561;-89
2023/06/23 03:33:54;;;;;;;12.02;8.27;;;;;;;20.05;76.48;99570.84;4893465;29;20126;-89
2023/06/23 03:36:20;;;;;;;12.95;8.48;;;;;;;20.04;76.38;99567.31;4902106;29;20041;-89
2023/06/23 03:39:18;;;;;;;14.57;8.25;;;;;;;20.04;76.51;99561.84;4871296;29;20044;-89
2023/06/23 03:41:44;;;;;;;16.55;9.30;;;;;;;20.06;76.34;99567.78;4878392;29;20063;-89
2023/06/23 03:44:33;;;;;;;14.18;8.55;;;;;;;20.04;76.50;99566.50;4897208;29;20527;-90
2023/06/23 03:47:02;;;;;;;18.17;8.77;;;;;;;20.12;76.12;99569.19;4916626;29;20505;-89
2023/06/23 03:49:35;;;;;;;13.18;8.82;;;;;;;20.18;76.07;99569.84;4913697;29;20085;-89
2023/06/23 03:52:05;;;;;;;14.32;9.00;;;;;;;20.20;76.27;99578.50;4915322;29;20099;-90
2023/06/23 03:54:31;;;;;;;13.80;9.07;;;;;;;20.16;76.48;99575.63;4902986;29;20079;-90
2023/06/23 03:56:57;;;;;;;19.50;8.65;;;;;;;20.22;76.24;99576.25;4891769;29;20048;-90
2023/06/23 03:59:24;;;;;;;9.90;8.13;;;;;;;20.15;75.93;99579.50;4883750;29;20040;-90
2023/06/23 04:01:50;;;;;;;12.57;8.05;;;;;;;20.24;75.83;99576.72;4873044;29;20494;-89
2023/06/23 04:04:17;;;;;;;14.48;9.27;;;;;;;20.25;75.06;99574.78;4912697;29;20075;-90
2023/06/23 04:06:43;;;;;;;13.68;8.10;;;;;;;20.36;75.04;99585.03;4910872;29;20039;-90
2023/06/23 04:09:10;;;;;;;17.13;7.82;;;;;;;20.45;73.71;99581.47;4893667;29;20094;-89
2023/06/23 04:11:36;;;;;;;13.93;7.35;;;;;;;20.46;74.58;99580.31;4925364;29;20066;-91
2023/06/23 04:14:01;;;;;;;10.50;7.82;;;;;;;20.52;73.90;99577.09;4915194;29;20036;-91
2023/06/23 04:16:27;;;;;;;14.70;7.68;;;;;;;20.58;73.95;99588.66;4914834;28;20038;-92
2023/06/23 04:18:52;;;;;;;9.85;7.30;;;;;;;20.52;73.98;99587.22;4918298;28;20117;-92
2023/06/23 04:21:20;;;;;;;9.00;6.88;;;;;;;20.60;72.69;99600.06;4926835;29;20028;-87
2023/06/23 04:23:46;;;;;;;10.13;7.10;;;;;;;20.62;72.25;99583.34;4932463;28;20453;-92
2023/06/23 04:26:12;;;;;;;9.02;6.93;;;;;;;20.69;72.04;99581.69;4913335;29;20035;-92
2023/06/23 04:28:38;;;;;;;15.10;7.55;;;;;;;20.77;71.55;99569.88;4944329;29;20035;-90
2023/06/23 04:31:06;;;;;;;11.18;7.53;;;;;;;20.88;71.20;99578.50;4909619;29;20036;-91
2023/06/23 04:33:32;;;;;;;13.82;7.75;;;;;;;20.93;71.22;99569.28;4911693;29;20040;-91
2023/06/23 04:36:01;;;;;;;15.90;7.80;;;;;;;21.00;71.48;99569.56;4924949;29;20035;-91
2023/06/23 04:38:28;;;;;;;18.55;10.00;;;;;;;21.00;70.14;99572.31;4909894;29;20070;-94
2023/06/23 04:41:02;;;;;;;14.70;8.60;;;;;;;21.04;70.51;99566.94;4911868;29;20473;-91
2023/06/23 04:43:37;;;;;;;12.45;9.55;;;;;;;21.27;70.25;99578.38;4922376;29;20107;-93
2023/06/23 04:46:05;;;;;;;11.77;9.20;;;;;;;21.23;68.84;99561.81;4921980;29;20043;-92
2023/06/23 04:48:33;;;;;;;18.95;10.52;;;;;;;21.36;68.44;99566.22;4939415;29;20050;-93
2023/06/23 04:50:59;;;;;;;17.10;14.20;;;;;;;21.31;68.07;99555.47;4912431;29;20050;-95
2023/06/23 04:53:30;;;;;;;25.73;19.75;;;;;;;21.50;67.59;99557.75;4951277;29;20110;-96
2023/06/23 04:56:01;;;;;;;22.13;14.32;;;;;;;21.70;68.58;99560.75;4930723;29;20067;-95
2023/06/23 04:58:31;;;;;;;14.25;12.10;;;;;;;21.73;67.65;99557.34;4950320;29;20043;-96
2023/06/23 05:00:57;;;;;;;23.33;9.95;;;;;;;21.80;67.24;99552.91;4949965;29;20041;-95
2023/06/23 05:03:26;;;;;;;14.50;8.15;;;;;;;22.08;66.43;99563.25;4932737;29;20518;-94
2023/06/23 05:05:52;;;;;;;12.18;7.68;;;;;;;22.24;65.55;99557.91;4914481;29;20123;-94
2023/06/23 05:08:18;;;;;;;10.13;7.40;;;;;;;22.19;65.73;99560.84;4909142;29;20015;-94
2023/06/23 05:11:06;;;;;;;;;;;;;;;;;;;;;
2023/06/23 05:14:01;;;;;;;12.13;7.38;;;;;;;22.37;64.50;99547.72;4932018;29;20589;-96
2023/06/23 05:16:27;;;;;;;13.00;9.40;;;;;;;22.44;63.60;99552.66;4940961;29;20036;-96
2023/06/23 05:18:54;;;;;;;11.27;7.45;;;;;;;22.52;63.90;99549.81;4899176;29;20050;-96
2023/06/23 05:21:21;;;;;;;11.98;9.15;;;;;;;22.64;64.00;99568.22;4945492;29;20039;-95
2023/06/23 05:23:49;;;;;;;12.18;8.40;;;;;;;22.78;64.15;99565.88;4901174;29;20063;-95
2023/06/23 05:26:16;;;;;;;12.68;7.22;;;;;;;22.95;63.50;99556.59;4901461;29;20102;-94
2023/06/23 05:29:09;;;;;;;15.13;8.70;;;;;;;23.00;63.36;99561.03;4911999;29;20493;-96
2023/06/23 05:31:39;;;;;;;12.30;8.20;;;;;;;22.96;62.99;99555.44;4940768;29;20085;-96
2023/06/23 05:34:17;;;;;;;;;;;;;;;;;;;;;
2023/06/23 05:36:43;;;;;;;16.80;8.10;;;;;;;23.24;62.99;99570.38;4901158;29;20103;-95
2023/06/23 05:41:52;;;;;;;16.40;8.77;;;;;;;23.52;60.97;99579.44;5051542;23;20497;-92
2023/06/23 05:44:19;;;;;;;12.23;8.80;;;;;;;23.43;61.47;99580.72;4927992;28;20085;-94
2023/06/23 05:46:45;;;;;;;14.60;10.65;;;;;;;23.45;61.15;99576.50;4968293;28;20053;-94
2023/06/23 05:49:14;;;;;;;13.55;8.48;;;;;;;23.55;60.79;99578.75;4939040;28;20481;-93
2023/06/23 05:51:40;;;;;;;11.27;7.72;;;;;;;23.67;60.13;99585.31;4935464;28;20497;-92
2023/06/23 05:54:10;;;;;;;9.10;7.15;;;;;;;23.68;60.66;99581.41;4933279;29;20047;-92
2023/06/23 05:56:41;;;;;;;12.02;9.73;;;;;;;23.88;60.99;99588.66;4946319;28;20046;-95
2023/06/23 05:59:10;;;;;;;22.02;15.02;;;;;;;23.98;59.73;99577.16;4960208;28;20041;-95
2023/06/23 06:01:39;;;;;;;14.73;10.88;;;;;;;24.20;59.47;99577.72;4935845;28;20106;-94
2023/06/23 06:04:07;;;;;;;10.23;7.60;;;;;;;24.34;58.71;99580.81;4932780;29;20047;-92
2023/06/23 06:06:45;;;;;;;13.95;7.38;;;;;;;24.40;59.05;99586.81;4944227;29;20035;-93
2023/06/23 06:09:13;;;;;;;13.40;7.00;;;;;;;24.40;58.77;99579.41;4948285;29;20057;-96
2023/06/23 06:11:41;;;;;;;8.82;6.50;;;;;;;24.35;58.79;99565.09;4932695;29;20491;-96
2023/06/23 06:14:15;;;;;;;7.80;5.97;;;;;;;24.65;57.53;99575.66;4933349;29;20035;-96
2023/06/23 06:16:41;;;;;;;8.70;6.50;;;;;;;24.49;58.64;99564.66;4947874;29;20050;-96
2023/06/23 06:19:07;;;;;;;9.15;6.30;;;;;;;24.67;58.30;99590.66;4933521;29;20047;-94
2023/06/23 06:21:36;;;;;;;10.77;6.22;;;;;;;24.90;57.56;99587.22;4947615;29;20134;-96
2023/06/23 06:24:04;;;;;;;6.82;6.13;;;;;;;24.90;57.44;99573.44;4937977;29;20019;-96
2023/06/23 06:26:31;;;;;;;9.77;6.68;;;;;;;24.98;57.17;99564.97;4933390;29;20031;-94
2023/06/23 06:28:59;;;;;;;6.85;6.03;;;;;;;25.23;56.23;99570.25;4944742;29;20054;-95
2023/06/23 06:31:27;;;;;;;9.80;6.75;;;;;;;25.13;57.03;99563.34;4942618;28;20078;-95
2023/06/23 06:33:53;;;;;;;13.75;7.13;;;;;;;25.28;56.73;99580.22;4953921;28;20046;-95
2023/06/23 06:36:30;;;;;;;14.55;8.55;;;;;;;25.30;57.20;99551.13;4957762;29;20031;-96
2023/06/23 06:38:59;;;;;;;12.68;7.13;;;;;;;25.59;55.97;99562.69;4945579;29;20086;-94
2023/06/23 06:41:25;;;;;;;10.98;5.50;;;;;;;25.70;55.62;99555.41;4913757;28;20061;-93
2023/06/23 06:43:50;;;;;;;8.55;5.38;;;;;;;25.89;55.13;99560.13;4943977;28;20039;-90
2023/06/23 06:46:21;;;;;;;12.00;6.22;;;;;;;25.95;55.55;99555.09;4936595;28;20398;-93
2023/06/23 06:48:58;;;;;;;10.18;5.95;;;;;;;25.99;55.00;99553.19;4948126;28;20049;-92
2023/06/23 06:51:40;;;;;;;;;;;;;;;;;;;;;
2023/06/23 06:54:17;;;;;;;;;;;;;;;;;;;;;
2023/06/23 06:56:47;;;;;;;11.32;6.07;;;;;;;26.03;54.49;99540.25;4960879;28;20099;-95
2023/06/23 07:03:12;;;;;;;;;;;;;;;;;;;;;
2023/06/23 07:05:38;;;;;;;10.75;7.30;;;;;;;26.77;52.83;99537.06;4972634;28;20126;-95
2023/06/23 07:08:06;;;;;;;12.43;6.32;;;;;;;26.79;52.27;99520.09;4937738;28;20062;-92
2023/06/23 07:10:33;;;;;;;9.65;5.50;;;;;;;26.92;51.18;99534.50;4938271;28;20035;-94
2023/06/23 07:13:03;;;;;;;8.40;5.65;;;;;;;26.99;51.21;99529.06;4942159;29;20040;-93
2023/06/23 07:15:44;;;;;;;8.45;6.32;;;;;;;27.06;50.80;99528.34;4926790;29;20054;-96
2023/06/23 07:18:20;;;;;;;7.05;5.80;;;;;;;27.19;50.69;99549.06;4928427;28;20139;-96
2023/06/23 07:21:03;;;;;;;8.82;6.18;;;;;;;27.33;50.44;99554.78;4956768;28;20129;-94
2023/06/23 07:23:28;;;;;;;9.65;7.70;;;;;;;27.50;49.80;99550.63;5134645;23;20417;-93
2023/06/23 07:26:04;;;;;;;8.73;7.03;;;;;;;27.61;49.25;99543.22;4935963;28;20035;-94
2023/06/23 07:28:32;;;;;;;7.88;6.47;;;;;;;27.71;49.12;99543.72;4927815;28;20101;-95
2023/06/23 07:31:08;;;;;;;;;;;;;;;;;;;;;
2023/06/23 07:34:06;;;;;;;7.20;5.70;;;;;;;27.97;46.73;99548.34;4955177;28;20102;-96
2023/06/23 07:36:32;;;;;;;5.90;5.10;;;;;;;28.01;43.73;99532.56;4941845;28;20023;-92
2023/06/23 07:39:10;;;;;;;7.43;5.45;;;;;;;28.06;44.43;99536.94;4932002;28;20059;-92
2023/06/23 07:41:47;;;;;;;6.47;5.22;;;;;;;28.14;45.31;99546.91;4950757;28;20105;-94
2023/06/23 07:44:13;;;;;;;6.32;5.25;;;;;;;28.14;46.35;99530.28;4947584;28;20177;-91
2023/06/23 07:46:38;;;;;;;8.38;5.18;;;;;;;28.13;46.23;99523.97;4929171;28;20054;-92
2023/06/23 07:49:07;;;;;;;6.72;5.45;;;;;;;28.17;47.34;99524.00;4934850;28;20042;-91
2023/06/23 07:51:36;;;;;;;11.55;5.47;;;;;;;28.39;48.01;99544.34;4929767;28;20050;-90
2023/06/23 07:54:01;;;;;;;8.68;5.88;;;;;;;28.49;47.97;99534.50;4929244;28;20047;-94
2023/06/23 07:56:27;;;;;;;6.82;5.90;;;;;;;28.52;47.49;99522.69;4933882;28;20484;-91
2023/06/23 07:58:53;;;;;;;10.25;6.57;;;;;;;28.56;47.53;99517.97;4935913;28;20153;-94
2023/06/23 08:01:26;;;;;;;7.50;6.55;;;;;;;28.95;47.32;99536.75;4933624;28;20382;-94
2023/06/23 08:03:51;;;;;;;6.63;5.40;;;;;;;28.93;46.03;99514.19;4932350;28;20043;-94
2023/06/23 08:06:23;;;;;;;8.05;5.93;;;;;;;29.05;46.01;99530.47;4931791;28;20492;-95
2023/06/23 08:08:50;;;;;;;7.43;6.07;;;;;;;29.12;45.63;99521.44;4926393;29;20485;-94
2023/06/23 08:11:18;;;;;;;6.05;5.18;;;;;;;29.39;44.92;99530.25;4921440;29;20101;-95
2023/06/23 08:13:45;;;;;;;7.07;4.97;;;;;;;29.38;44.52;99504.47;4931872;28;20038;-94
2023/06/23 08:16:11;;;;;;;7.45;4.40;;;;;;;29.64;43.73;99523.94;4947189;28;20035;-93
2023/06/23 08:18:39;;;;;;;5.68;4.78;;;;;;;29.30;42.24;99515.94;4934253;28;20052;-91
2023/06/23 08:21:09;;;;;;;8.82;5.32;;;;;;;29.44;43.38;99510.41;4936444;28;20488;-93
2023/06/23 08:23:35;;;;;;;5.57;4.75;;;;;;;29.55;43.35;99504.88;4934832;28;20505;-94
2023/06/23 08:26:00;;;;;;;6.03;4.88;;;;;;;29.80;40.96;99518.81;4939733;28;20031;-93
2023/06/23 08:28:28;;;;;;;9.40;5.35;;;;;;;29.58;38.73;99498.56;4935265;28;20046;-92
2023/06/23 08:31:03;;;;;;;8.45;5.10;;;;;;;29.63;39.13;99495.38;4935417;28;20109;-92
2023/06/23 08:34:02;;;;;;;;;;;;;;;;;;;;;
2023/06/23 08:36:47;;;;;;;6.78;4.30;;;;;;;30.16;40.19;99513.28;4959883;29;20094;-93
2023/06/23 08:39:14;;;;;;;5.88;4.55;;;;;;;30.11;39.31;99494.22;4960897;28;20149;-93
2023/06/23 08:41:42;;;;;;;5.78;4.82;;;;;;;30.08;37.80;99492.28;4952921;28;20035;-94
2023/06/23 08:44:13;;;;;;;6.07;4.50;;;;;;;29.97;37.14;99481.16;4951666;28;20492;-93
2023/06/23 08:47:44;;;;;;;6.13;5.03;;;;;;;30.11;37.38;99489.50;5023375;27;2488934;-94
2023/06/23 08:50:18;;;;;;;6.97;6.22;;;;;;;30.23;37.40;99485.50;5065563;28;20032;-93
2023/06/23 08:52:46;;;;;;;6.57;4.32;;;;;;;30.46;37.46;99501.75;5052008;28;20025;-94
2023/06/23 08:55:12;;;;;;;6.13;4.65;;;;;;;30.47;36.64;99497.00;5047083;28;20056;-92
2023/06/23 08:57:38;;;;;;;8.82;5.38;;;;;;;30.58;37.18;99503.31;5041537;28;20116;-91
2023/06/23 09:00:06;;;;;;;5.80;4.20;;;;;;;30.52;35.39;99496.59;5042556;28;20086;-93
2023/06/23 09:05:04;;;;;;;5.80;4.85;;;;;;;30.75;33.98;99519.13;5042253;28;20057;-94
2023/06/23 09:07:33;;;;;;;5.20;4.70;;;;;;;30.67;34.25;99494.56;5003891;28;20022;-91
2023/06/23 09:10:02;;;;;;;5.97;4.13;;;;;;;30.51;33.87;99493.03;5003424;28;20030;-91
2023/06/23 09:12:28;;;;;;;6.68;4.68;;;;;;;30.73;34.64;99504.06;4990249;28;20032;-94
2023/06/23 09:14:54;;;;;;;6.93;4.88;;;;;;;30.83;35.01;99487.34;4986242;28;20030;-92
2023/06/23 09:17:30;;;;;;;5.43;4.20;;;;;;;30.94;33.38;99492.91;4987153;28;20572;-93
2023/06/23 09:20:11;;;;;;;7.43;4.80;;;;;;;30.75;34.26;99480.22;4988223;28;20036;-94
2023/06/23 09:25:50;;;;;;;6.53;4.20;;;;;;;30.97;35.11;99494.09;5008400;28;20111;-93
2023/06/23 09:28:29;;;;;;;5.38;4.45;;;;;;;31.11;34.20;99496.81;5002462;28;20034;-91
2023/06/23 09:31:15;;;;;;;5.95;4.10;;;;;;;31.22;34.18;99493.97;5003074;28;20509;-91
2023/06/23 09:33:57;;;;;;;5.63;4.63;;;;;;;31.13;32.73;99476.91;5000194;28;20487;-91
2023/06/23 09:36:22;;;;;;;5.47;4.45;;;;;;;31.21;32.97;99484.81;4985943;28;20029;-90
2023/06/23 09:38:48;;;;;;;4.38;3.80;;;;;;;31.15;32.52;99482.84;4986395;28;20087;-92
2023/06/23 09:41:15;;;;;;;6.25;4.50;;;;;;;31.26;32.31;99496.72;4986326;28;20034;-90
2023/06/23 09:43:47;;;;;;;5.05;4.15;;;;;;;31.27;32.87;99484.38;4986181;28;20075;-91
2023/06/23 09:46:19;;;;;;;4.78;4.30;;;;;;;31.14;32.50;99475.72;4986607;28;20048;-90
2023/06/23 09:48:51;;;;;;;7.05;4.60;;;;;;;31.23;32.78;99478.84;5006176;28;20033;-88
2023/06/23 09:52:06;;;;;;;6.97;4.60;;;;;;;31.31;32.11;99487.94;5003923;28;20022;-89
2023/06/23 09:54:44;;;;;;;5.97;4.40;;;;;;;31.17;31.60;99484.06;5013357;28;20038;-91
2023/06/23 09:57:21;;;;;;;4.95;4.00;;;;;;;31.22;32.66;99485.63;4994252;28;20023;-90
2023/06/23 09:59:50;;;;;;;7.70;4.38;;;;;;;31.06;31.89;99461.03;4978854;28;20031;-93
2023/06/23 10:02:23;;;;;;;6.45;4.75;;;;;;;31.10;31.79;99470.16;4970723;28;20031;-91
2023/06/23 10:04:51;;;;;;;5.72;4.15;;;;;;;31.22;32.05;99464.13;4999834;28;20056;-94
2023/06/23 10:07:21;;;;;;;4.88;3.90;;;;;;;31.27;31.94;99460.13;4993798;28;20471;-91
2023/06/23 10:09:58;;;;;;;5.32;4.10;;;;;;;31.28;32.26;99475.63;4979795;28;20069;-91
2023/06/23 10:12:26;;;;;;;5.65;4.47;;;;;;;31.45;32.34;99473.19;4982480;28;20043;-89
2023/06/23 10:14:53;;;;;;;9.15;4.60;;;;;;;31.53;32.42;99481.06;4975259;28;20117;-91
2023/06/23 10:17:24;;;;;;;6.53;5.03;;;;;;;31.64;32.40;99472.63;4985301;28;20045;-92
2023/06/23 10:19:50;;;;;;;30.67;19.77;;;;;;;31.73;32.77;99472.97;4987372;28;20097;-93
2023/06/23 10:22:18;;;;;;;7.38;4.70;;;;;;;31.73;31.77;99447.09;5004630;28;20030;-94
2023/06/23 10:24:52;;;;;;;7.82;4.97;;;;;;;31.94;31.40;99452.50;5015958;28;20052;-94
2023/06/23 10:28:02;;;;;;;7.60;4.60;;;;;;;32.09;31.27;99466.34;4984297;28;20025;-95
2023/06/23 10:30:30;;;;;;;5.10;4.43;;;;;;;32.04;31.43;99436.13;4984803;28;20014;-94
2023/06/23 10:33:02;;;;;;;6.03;4.70;;;;;;;32.06;31.94;99436.50;4969891;28;20358;-94
2023/06/23 10:35:34;;;;;;;6.50;4.80;;;;;;;31.91;31.17;99435.81;4988117;28;20038;-94
2023/06/23 10:38:33;;;;;;;;;;;;;;;;;;;;;
2023/06/23 10:41:00;;;;;;;5.47;4.53;;;;;;;32.04;31.44;99445.25;4990381;28;20089;-92
2023/06/23 10:43:30;;;;;;;8.90;4.90;;;;;;;32.32;31.99;99451.75;4985216;28;20022;-92
2023/06/23 10:45:57;;;;;;;5.47;4.30;;;;;;;32.34;31.14;99435.41;4990220;28;20026;-92
2023/06/23 10:48:23;;;;;;;5.97;4.45;;;;;;;32.38;30.70;99433.38;4971231;28;20026;-92
2023/06/23 10:50:53;;;;;;;5.95;4.50;;;;;;;32.35;31.18;99429.44;4969935;28;20057;-92
2023/06/23 10:53:18;;;;;;;4.82;4.20;;;;;;;32.03;30.79;99415.84;4983513;28;20057;-91
2023/06/23 10:55:45;;;;;;;5.40;3.97;;;;;;;32.15;31.40;99418.09;4968509;28;20034;-92
2023/06/23 10:58:16;;;;;;;8.65;4.70;;;;;;;32.03;31.71;99415.06;4969441;28;20030;-94
2023/06/23 11:00:46;;;;;;;7.57;4.82;;;;;;;32.31;32.12;99430.66;4985581;28;20022;-92
2023/06/23 11:03:39;;;;;;;6.45;4.97;;;;;;;32.52;32.31;99435.19;4963655;28;20054;-90
2023/06/23 11:06:34;;;;;;;5.20;4.15;;;;;;;32.58;31.83;99416.84;4981026;28;20053;-95
2023/06/23 11:09:52;;;;;;;5.72;4.43;;;;;;;32.80;30.80;99431.31;4980330;28;20034;-91
2023/06/23 11:12:56;;;;;;;5.25;4.45;;;;;;;32.79;30.96;99432.53;4984488;28;20035;-91
2023/06/23 11:15:24;;;;;;;5.65;4.10;;;;;;;32.75;31.07;99415.84;4966803;28;20145;-94
2023/06/23 11:17:59;;;;;;;7.57;4.03;;;;;;;32.78;31.33;99431.72;4965542;28;20007;-94
2023/06/23 11:24:14;;;;;;;7.40;4.30;;;;;;;32.61;31.08;99427.94;4982524;28;20041;-95
2023/06/23 11:27:03;;;;;;;7.40;4.30;;;;;;;32.32;31.29;99396.81;4981306;28;20098;-95
2023/06/23 11:29:34;;;;;;;7.28;4.00;;;;;;;32.45;30.95;99413.00;4971755;28;20046;-94
2023/06/23 11:32:04;;;;;;;6.80;4.22;;;;;;;32.47;31.61;99402.22;4965991;28;20046;-95
2023/06/23 11:34:31;;;;;;;7.25;4.15;;;;;;;32.55;31.86;99395.38;4975532;28;20057;-94
2023/06/23 11:36:57;;;;;;;4.75;4.30;;;;;;;32.43;32.37;99377.94;4972158;28;20027;-95
2023/06/23 11:39:23;;;;;;;4.40;4.00;;;;;;;32.71;30.83;99403.16;4982251;28;20030;-94
2023/06/23 11:41:48;;;;;;;6.07;4.55;;;;;;;32.48;30.68;99401.81;4968621;28;20057;-94
2023/06/23 11:44:17;;;;;;;5.82;4.60;;;;;;;32.64;31.22;99397.66;4984079;28;20026;-93
2023/06/23 11:46:42;;;;;;;5.30;3.97;;;;;;;32.55;31.31;99396.16;4967937;28;20006;-95
2023/06/23 11:49:13;;;;;;;5.38;4.28;;;;;;;32.46;31.76;99379.13;4966747;28;20389;-95
2023/06/23 11:51:39;;;;;;;4.65;4.13;;;;;;;32.69;31.57;99383.25;4968269;28;20479;-93
2023/06/23 11:54:08;;;;;;;5.60;4.50;;;;;;;32.49;31.47;99363.56;4966830;28;20034;-92
2023/06/23 11:56:33;;;;;;;5.30;4.50;;;;;;;32.66;31.73;99378.50;4984106;28;20086;-94
2023/06/23 11:59:01;;;;;;;5.30;4.60;;;;;;;32.51;31.57;99387.03;4966887;28;20058;-94
2023/06/23 12:01:28;;;;;;;6.22;4.18;;;;;;;32.53;31.36;99375.47;4972447;28;20026;-94
2023/06/23 12:03:54;;;;;;;4.78;3.80;;;;;;;32.66;31.06;99361.78;4990743;28;20105;-95
2023/06/23 12:06:40;;;;;;;6.32;4.00;;;;;;;32.68;32.15;99365.72;4967729;28;20022;-92
2023/06/23 12:09:07;;;;;;;6.88;4.10;;;;;;;32.75;31.87;99368.44;5001422;28;20081;-95
2023/06/23 12:11:33;;;;;;;7.72;4.30;;;;;;;32.78;32.19;99355.63;5001361;28;20428;-94